Shawville, Pennsylvania
Current Conditions -  °F | °C
As of 1:54 AM on Friday 31 Oct 2014 (Local Time) from KFIG Reporting Station
Overcast Overcast  
Wind Chill: 42°   Ceiling: 4800
Heat Index: 42°   Visibility: 10mi
Dew Point: 37°   Wind: 0mph
Humidity: 82%   Direction: NA
Pressure: 30.01"   Gusts: NA
Location:  41.07°N, 78.36°W
Report Text: KFIG 310554Z AUTO 00000KT 10SM OVC048 06/03 A3001 RMK AO2 SLP169 T00560028 10072 20050 58006
Loading
Personal Weather Stations






























Interactive Weather Map
Tropical Storm Tracking
New forecast layout! Learn more

10-Day Weather Forecast

Advertisements
Track Severe Weather on mobile